Strona główna
METAR-TAF:

METAR-TAF

Lotnisko :

Dansville Municipal Airport

Dansville, Nowy Jork, Stany Zjednoczone

Szerokość geograficzna: 42-34-10N, Długość geograficzna: 077-42-52W, wysokość: 201 m

Aktualna obserwacja pogody

Raport powstał 36 minut temu, godzina 16:54 UTC
Wiatr 5 kt od południowo-południowy wschód
Temperatura 22°C
Wilgotność 78%
Ciśnienie 1011 hPa
Widzialność: 16.1 km
Mało chmury na wysokości 4400 ft
Przerywane chmury na wysokości 8500 ft
Przerywane chmury na wysokości 11000 ft

METAR: KDSV 241654Z AUTO 15005KT 10SM FEW044 BKN085 BKN110 22/18 A2985 RMK AO2 RAB21E50 SLP112 P0000 T02220178

czas: 13:30 (17:30 UTC)


TAF: brakujący

Obserwacja i prognoza pogody dla ponad 4000 lotnisk (raport METAR i TAF).

Dostępne stacje oznaczono żółtymi i czerwonymi punktami na mapie.

Najedź kursorem aby zobaczyć nazwę stacji.

Kliknij aby zobaczyć obserwacje i prognozy pogody.

Aby zmienić mapę: kliknij na zielony przycisk z czarnym krzyżykiem, aby powiększyć; na zielony przycisk z myślnikiem, aby pomniejszyć; na zielone strzałki, aby przejść do map sąsiednich.


METAR-TAF: